createdAt,value
2023-10-08T00:01:16.321Z,101021.38
2023-10-08T00:06:23.134Z,100995.59
2023-10-08T00:11:25.461Z,101031.59
2023-10-08T00:16:30.047Z,101024.16
2023-10-08T00:21:34.901Z,100994.91
2023-10-08T00:26:41.844Z,101011.63
2023-10-08T00:31:47.044Z,100996.22
2023-10-08T00:36:50.677Z,101014.56
2023-10-08T00:42:01.147Z,101000.81
2023-10-08T00:47:06.366Z,100958.34
2023-10-08T00:52:11.547Z,100979.75
2023-10-08T00:57:23.114Z,100990.28
2023-10-08T01:02:56.874Z,100998.22
2023-10-08T01:08:00.360Z,100953.03
2023-10-08T01:13:02.655Z,100977.00
2023-10-08T01:18:16.431Z,100990.38
2023-10-08T01:23:22.317Z,100945.13
2023-10-08T01:28:30.452Z,100983.41
2023-10-08T01:33:33.790Z,100944.19
2023-10-08T01:38:36.546Z,100965.59
2023-10-08T01:43:40.300Z,100937.53
2023-10-08T01:48:46.720Z,100943.38
2023-10-08T01:53:49.515Z,100974.16
2023-10-08T01:58:52.112Z,100948.28
2023-10-08T02:03:54.755Z,100920.84
2023-10-08T02:08:57.469Z,100941.38
2023-10-08T02:13:59.918Z,100922.38
2023-10-08T02:19:02.169Z,100933.13
2023-10-08T02:24:04.842Z,100960.09
2023-10-08T02:29:12.128Z,100947.41
2023-10-08T02:34:14.963Z,100905.97
2023-10-08T02:39:24.813Z,100941.38
2023-10-08T02:44:28.923Z,100918.72
2023-10-08T02:49:33.300Z,100932.00
2023-10-08T02:54:38.998Z,100930.13
2023-10-08T02:59:42.671Z,100930.13
2023-10-08T03:04:47.190Z,100902.28
2023-10-08T03:10:05.194Z,100933.22
2023-10-08T03:15:26.742Z,100902.84
2023-10-08T03:20:40.233Z,100909.75
2023-10-08T03:25:47.542Z,100919.06
2023-10-08T03:30:51.468Z,100913.59
2023-10-08T03:35:56.598Z,100918.44
2023-10-08T03:41:05.140Z,100926.28
2023-10-08T03:46:07.452Z,100925.22
2023-10-08T03:51:13.340Z,100901.47
2023-10-08T03:56:16.049Z,100925.22
2023-10-08T04:01:22.507Z,100899.72
2023-10-08T04:06:32.982Z,100893.97
2023-10-08T04:11:43.572Z,100889.09
2023-10-08T04:16:47.094Z,100875.31
2023-10-08T04:21:58.713Z,100873.78
2023-10-08T04:27:00.999Z,100874.66
2023-10-08T04:32:09.236Z,100878.91
2023-10-08T04:37:14.416Z,100918.00
2023-10-08T04:42:19.783Z,100894.59
2023-10-08T04:47:34.424Z,100903.81
2023-10-08T04:52:47.082Z,100924.41
2023-10-08T04:57:50.686Z,100878.94
2023-10-08T05:02:55.747Z,100895.59
2023-10-08T05:08:18.521Z,100894.41
2023-10-08T05:13:32.054Z,100880.53
2023-10-08T05:19:00.136Z,100902.19
2023-10-08T05:24:14.188Z,100922.84
2023-10-08T05:29:51.452Z,100913.03
2023-10-08T05:35:13.668Z,100939.56
2023-10-08T05:40:35.774Z,100930.53
2023-10-08T05:45:38.378Z,100942.22
2023-10-08T05:50:43.861Z,100916.34
2023-10-08T05:55:49.448Z,100918.97
2023-10-08T06:00:52.919Z,100929.00
2023-10-08T06:06:15.144Z,100956.25
2023-10-08T06:11:55.498Z,100928.59
2023-10-08T06:17:17.568Z,100928.63
2023-10-08T06:22:20.748Z,100917.59
2023-10-08T06:27:26.937Z,100937.59
2023-10-08T06:32:31.896Z,100948.00
2023-10-08T06:37:36.307Z,100962.31
2023-10-08T06:42:39.209Z,100955.03
2023-10-08T06:47:42.091Z,100934.13
2023-10-08T06:52:45.069Z,100959.34
2023-10-08T06:57:49.489Z,100947.81
2023-10-08T07:02:52.647Z,100939.41
2023-10-08T07:07:55.009Z,100944.75
2023-10-08T07:12:57.264Z,100952.91
2023-10-08T07:18:09.754Z,100952.19
2023-10-08T07:23:20.335Z,100976.69
2023-10-08T07:28:22.647Z,100946.00
2023-10-08T07:33:26.695Z,100972.94
2023-10-08T07:38:30.180Z,100940.88
2023-10-08T07:43:34.254Z,100960.00
2023-10-08T07:48:44.568Z,100919.09
2023-10-08T07:53:48.509Z,100933.44
2023-10-08T07:58:52.347Z,100918.00
2023-10-08T08:03:54.772Z,100927.19
2023-10-08T08:08:57.184Z,100930.63
2023-10-08T08:14:00.929Z,100896.88
2023-10-08T08:19:03.499Z,100893.81
2023-10-08T08:24:09.381Z,100908.88
2023-10-08T08:29:16.957Z,100928.28
2023-10-08T08:34:21.335Z,100914.19
2023-10-08T08:39:33.849Z,100905.22
2023-10-08T08:44:48.945Z,100916.84
2023-10-08T08:49:54.973Z,100901.38
2023-10-08T08:54:58.338Z,100882.63
2023-10-08T09:00:01.151Z,100904.19
2023-10-08T09:05:14.634Z,100874.09
2023-10-08T09:10:19.591Z,100872.56
2023-10-08T09:15:24.213Z,100864.44
2023-10-08T09:20:28.119Z,100878.94
2023-10-08T09:25:34.091Z,100886.38
2023-10-08T09:30:41.438Z,100865.28
2023-10-08T09:35:47.673Z,100881.00
2023-10-08T09:40:50.436Z,100859.13
2023-10-08T09:46:07.351Z,100875.75
2023-10-08T09:51:14.081Z,100873.56
2023-10-08T09:56:17.451Z,100861.00
2023-10-08T10:01:24.140Z,100862.94
2023-10-08T10:06:26.599Z,100830.34
2023-10-08T10:11:30.660Z,100845.75
2023-10-08T10:16:32.956Z,100810.91
2023-10-08T10:21:35.590Z,100796.38
2023-10-08T10:26:42.020Z,100794.75
2023-10-08T10:31:50.713Z,100774.16
2023-10-08T10:36:57.753Z,100801.31
2023-10-08T10:42:04.674Z,100797.09
2023-10-08T10:47:19.314Z,100783.94
2023-10-08T10:52:44.643Z,100777.31
2023-10-08T10:57:58.520Z,100764.59
2023-10-08T11:03:04.552Z,100718.47
2023-10-08T11:08:10.496Z,100729.53
2023-10-08T11:13:18.785Z,100729.63
2023-10-08T11:18:23.315Z,100719.22
2023-10-08T11:23:43.421Z,100702.09
2023-10-08T11:28:48.769Z,100709.47
2023-10-08T11:33:56.804Z,100680.91
2023-10-08T11:39:13.131Z,100684.72
2023-10-08T11:44:15.856Z,100697.38
2023-10-08T11:49:27.101Z,100697.44
2023-10-08T11:54:29.536Z,100681.03
2023-10-08T11:59:33.692Z,100688.50
2023-10-08T12:04:37.818Z,100683.00
2023-10-08T12:09:42.502Z,100663.59
2023-10-08T12:14:48.779Z,100676.91
2023-10-08T12:19:53.089Z,100653.16
2023-10-08T12:24:55.307Z,100664.50
2023-10-08T12:30:00.780Z,100650.31
2023-10-08T12:35:03.156Z,100647.69
2023-10-08T12:40:13.347Z,100640.38
2023-10-08T12:45:15.714Z,100629.44
2023-10-08T12:50:51.839Z,100643.91
2023-10-08T12:55:59.564Z,100629.88
2023-10-08T13:01:05.373Z,100634.88
2023-10-08T13:06:07.804Z,100618.75
2023-10-08T13:11:10.046Z,100601.34
2023-10-08T13:16:12.440Z,100597.56
2023-10-08T13:21:15.026Z,100598.94
2023-10-08T13:26:18.700Z,100581.56
2023-10-08T13:31:21.531Z,100568.97
2023-10-08T13:36:27.164Z,100586.72
2023-10-08T13:41:32.050Z,100560.91
2023-10-08T13:46:38.304Z,100588.03
2023-10-08T13:51:40.584Z,100548.28
2023-10-08T13:56:49.958Z,100553.94
2023-10-08T14:01:56.535Z,100575.41
2023-10-08T14:07:00.102Z,100559.59
2023-10-08T14:12:02.480Z,100563.75
2023-10-08T14:17:07.735Z,100558.66
2023-10-08T14:22:15.961Z,100563.22
2023-10-08T14:27:20.108Z,100568.53
2023-10-08T14:32:22.380Z,100537.34
2023-10-08T14:37:43.251Z,100532.78
2023-10-08T14:43:00.032Z,100538.22
2023-10-08T14:48:07.173Z,100558.41
2023-10-08T14:53:09.700Z,100542.78
2023-10-08T14:58:12.420Z,100569.69
2023-10-08T15:03:15.030Z,100546.59
2023-10-08T15:08:20.183Z,100528.88
2023-10-08T15:13:22.862Z,100540.28
2023-10-08T15:18:33.313Z,100579.25
2023-10-08T15:23:37.151Z,100576.19
2023-10-08T15:28:42.097Z,100577.50
2023-10-08T15:33:44.492Z,100550.16
2023-10-08T15:38:47.115Z,100557.91
2023-10-08T15:43:53.303Z,100582.09
2023-10-08T15:48:55.709Z,100585.44
2023-10-08T15:53:58.052Z,100563.69
2023-10-08T15:59:00.592Z,100559.97
2023-10-08T16:04:03.125Z,100562.31
2023-10-08T16:09:07.405Z,100581.13
2023-10-08T16:14:09.678Z,100591.16
2023-10-08T16:19:12.190Z,100594.91
2023-10-08T16:24:14.707Z,100586.81
2023-10-08T16:29:17.179Z,100614.38
2023-10-08T16:34:19.900Z,100616.91
2023-10-08T16:39:25.871Z,100618.16
2023-10-08T16:44:28.274Z,100616.44
2023-10-08T16:49:30.786Z,100623.69
2023-10-08T16:54:33.279Z,100593.94
2023-10-08T16:59:38.931Z,100628.47
2023-10-08T17:04:48.615Z,100635.34
2023-10-08T17:09:53.079Z,100632.47
2023-10-08T17:14:55.910Z,100645.16
2023-10-08T17:19:58.457Z,100626.28
2023-10-08T17:25:00.892Z,100665.97
2023-10-08T17:30:07.716Z,100657.28
2023-10-08T17:35:10.700Z,100656.50
2023-10-08T17:40:13.475Z,100654.31
2023-10-08T17:45:16.424Z,100637.31
2023-10-08T17:50:19.257Z,100676.78
2023-10-08T17:55:21.773Z,100662.28
2023-10-08T18:00:28.331Z,100674.66
2023-10-08T18:05:33.346Z,100692.19
2023-10-08T18:10:37.350Z,100649.38
2023-10-08T18:15:40.360Z,100699.03
2023-10-08T18:20:45.905Z,100665.00
2023-10-08T18:25:48.223Z,100644.72
2023-10-08T18:30:51.560Z,100657.31
2023-10-08T18:35:54.262Z,100701.44
2023-10-08T18:40:57.320Z,100672.31
2023-10-08T18:46:00.885Z,100698.03
2023-10-08T18:51:13.107Z,100694.44
2023-10-08T18:56:20.326Z,100716.97
2023-10-08T19:01:30.903Z,100709.41
2023-10-08T19:06:33.550Z,100723.66
2023-10-08T19:11:36.821Z,100726.41
2023-10-08T19:16:39.959Z,100679.25
2023-10-08T19:21:42.248Z,100679.13
2023-10-08T19:26:44.661Z,100701.81
2023-10-08T19:31:47.799Z,100707.59
2023-10-08T19:36:50.883Z,100717.00
2023-10-08T19:41:53.526Z,100725.28
2023-10-08T19:46:56.631Z,100751.56
2023-10-08T19:51:59.174Z,100714.84
2023-10-08T19:57:02.538Z,100705.00
2023-10-08T20:02:04.897Z,100744.72
2023-10-08T20:07:09.046Z,100707.63
2023-10-08T20:12:11.746Z,100743.59
2023-10-08T20:17:14.663Z,100719.38
2023-10-08T20:22:18.027Z,100729.16
2023-10-08T20:27:21.669Z,100747.72
2023-10-08T20:32:30.970Z,100704.69
2023-10-08T20:37:34.770Z,100749.53
2023-10-08T20:42:38.135Z,100765.56
2023-10-08T20:47:41.739Z,100766.28
2023-10-08T20:52:47.496Z,100740.44
2023-10-08T20:57:51.004Z,100779.16
2023-10-08T21:02:53.333Z,100754.94
2023-10-08T21:07:56.172Z,100766.13
2023-10-08T21:12:58.503Z,100755.78
2023-10-08T21:18:00.753Z,100749.63
2023-10-08T21:23:06.741Z,100763.69
2023-10-08T21:28:10.610Z,100786.16
2023-10-08T21:33:13.237Z,100777.41
2023-10-08T21:38:15.714Z,100784.84
2023-10-08T21:43:30.069Z,100775.03
2023-10-08T21:48:35.491Z,100775.81
2023-10-08T21:53:37.896Z,100782.88
2023-10-08T21:58:40.990Z,100767.38
2023-10-08T22:03:45.524Z,100778.53
2023-10-08T22:08:50.296Z,100783.88
2023-10-08T22:13:53.135Z,100807.59
2023-10-08T22:18:58.373Z,100784.22
2023-10-08T22:24:01.420Z,100816.38
2023-10-08T22:29:04.261Z,100820.75
2023-10-08T22:34:17.127Z,100829.41
2023-10-08T22:39:22.259Z,100802.56
2023-10-08T22:44:27.767Z,100819.69
2023-10-08T22:49:33.368Z,100809.84
2023-10-08T22:54:36.453Z,100795.06
2023-10-08T22:59:41.480Z,100831.94
2023-10-08T23:04:45.591Z,100831.66
2023-10-08T23:09:47.985Z,100811.06
2023-10-08T23:14:50.225Z,100863.09
2023-10-08T23:19:53.137Z,100838.75
2023-10-08T23:24:57.357Z,100867.78
2023-10-08T23:29:59.985Z,100820.91
2023-10-08T23:35:02.465Z,100853.78
2023-10-08T23:40:20.407Z,100864.22
2023-10-08T23:45:28.356Z,100832.88
2023-10-08T23:50:35.270Z,100821.97
2023-10-08T23:55:57.538Z,100862.94
